Time;durP1;ratioP1;P1;durP2;ratioP2;P2;SDS_P1;SDS_P2;PMS_P1;PMS_P2;Temp;Humidity;BMP_temperature;BMP_pressure;BME280_temperature;BME280_humidity;BME280_pressure;Samples;Min_cycle;Max_cycle;Signal;HPM_P1;HPM_P2
2021/04/01 00:01:28;;;;;;;65.83;35.17;;;;;;;9.72;85.69;100470.60;1627987;88;21252;-74
2021/04/01 00:03:56;;;;;;;61.77;34.23;;;;;;;9.70;85.71;100473.72;1628100;88;21249;-75
2021/04/01 00:06:24;;;;;;;62.85;35.13;;;;;;;9.68;85.74;100470.27;1600846;88;21205;-74
2021/04/01 00:09:01;;;;;;;65.30;37.67;;;;;;;9.66;85.67;100468.13;1610103;85;22911;-70
2021/04/01 00:11:32;;;;;;;68.30;39.13;;;;;;;9.64;85.63;100458.14;1636984;87;21255;-70
2021/04/01 00:14:03;;;;;;;71.95;39.48;;;;;;;9.60;85.56;100461.75;1666252;85;21257;-71
2021/04/01 00:16:32;;;;;;;69.82;38.85;;;;;;;9.60;85.59;100456.03;1673066;84;21651;-70
2021/04/01 00:19:02;;;;;;;72.12;40.50;;;;;;;9.58;85.74;100451.27;1673011;84;21303;-71
2021/04/01 00:21:37;;;;;;;77.70;42.03;;;;;;;9.56;85.86;100441.70;1678271;84;21669;-71
2021/04/01 00:24:07;;;;;;;68.70;37.53;;;;;;;9.53;85.86;100445.27;1633222;87;21142;-76
2021/04/01 00:26:36;;;;;;;70.78;37.08;;;;;;;9.49;86.05;100434.89;1665140;86;21179;-74
2021/04/01 00:29:04;;;;;;;76.47;43.28;;;;;;;9.44;86.18;100437.19;1652207;85;21202;-74
2021/04/01 00:31:33;;;;;;;77.03;42.20;;;;;;;9.38;86.37;100435.17;1631299;87;21237;-73
2021/04/01 00:34:01;;;;;;;80.28;44.40;;;;;;;9.32;86.71;100428.33;1631478;86;21438;-74
2021/04/01 00:36:30;;;;;;;68.97;38.55;;;;;;;9.28;87.01;100431.94;1631338;87;21255;-74
2021/04/01 00:38:59;;;;;;;82.92;44.60;;;;;;;9.23;87.51;100425.48;1742551;79;21166;-69
2021/04/01 00:41:27;;;;;;;74.10;42.83;;;;;;;9.19;88.06;100420.36;1740972;81;21133;-70
2021/04/01 00:43:55;;;;;;;74.25;42.30;;;;;;;9.18;88.03;100418.65;1728521;81;21183;-72
2021/04/01 00:46:24;;;;;;;69.12;41.48;;;;;;;9.15;88.24;100412.14;1688758;84;21383;-71
2021/04/01 00:48:55;;;;;;;74.27;42.08;;;;;;;9.14;88.33;100414.38;1688887;84;21231;-71
2021/04/01 00:51:23;;;;;;;70.30;40.17;;;;;;;9.14;88.29;100418.31;1688941;84;21963;-69
2021/04/01 00:53:51;;;;;;;71.75;41.98;;;;;;;9.13;88.12;100410.00;1637582;81;21223;-74
2021/04/01 00:56:21;;;;;;;71.35;43.05;;;;;;;9.09;88.23;100413.17;1624886;86;21257;-73
2021/04/01 00:58:50;;;;;;;69.22;40.58;;;;;;;9.02;88.36;100401.97;1679006;85;21389;-73
2021/04/01 01:01:31;;;;;;;74.22;43.70;;;;;;;9.00;88.25;100401.14;1660181;85;21259;-73
2021/04/01 01:03:51;;;;;;;72.62;42.65;;;;;;;8.96;88.26;100392.92;1676814;85;21211;-73
2021/04/01 01:06:19;;;;;;;70.22;41.20;;;;;;;8.91;88.42;100394.81;1649324;85;21252;-74
2021/04/01 01:08:47;;;;;;;72.12;39.88;;;;;;;8.87;88.38;100395.78;1707389;82;21164;-69
2021/04/01 01:11:15;;;;;;;55.88;31.37;;;;;;;8.84;88.42;100394.56;1710856;83;21373;-69
2021/04/01 01:13:45;;;;;;;60.25;35.03;;;;;;;8.80;88.50;100390.28;1710266;83;21580;-69
2021/04/01 01:16:13;;;;;;;58.40;34.67;;;;;;;8.75;88.45;100384.30;1710206;83;21221;-69
2021/04/01 01:18:41;;;;;;;56.20;32.65;;;;;;;8.70;88.43;100387.49;1710289;83;21205;-70
2021/04/01 01:21:09;;;;;;;67.72;36.95;;;;;;;8.66;88.38;100384.52;1711142;83;21158;-69
2021/04/01 01:23:37;;;;;;;67.97;41.20;;;;;;;8.60;88.55;100375.91;1731077;81;21437;-74
2021/04/01 01:26:06;;;;;;;66.40;39.13;;;;;;;8.56;88.75;100374.25;1688372;83;21185;-74
2021/04/01 01:28:34;;;;;;;72.40;38.73;;;;;;;8.53;88.85;100374.31;1711450;83;21171;-74
2021/04/01 01:31:03;;;;;;;61.90;34.65;;;;;;;8.50;89.04;100376.16;1689122;83;21162;-74
2021/04/01 01:33:42;;;;;;;84.00;45.83;;;;;;;8.51;89.47;100368.27;1888480;76;28264;-75
2021/04/01 01:36:13;;;;;;;75.32;42.05;;;;;;;8.46;89.74;100363.55;1843568;77;21332;-76
2021/04/01 01:38:41;;;;;;;81.92;42.73;;;;;;;8.45;89.92;100363.16;1776807;77;22322;-69
2021/04/01 01:41:08;;;;;;;77.27;40.95;;;;;;;8.46;90.60;100372.73;1727819;82;21199;-70
2021/04/01 01:43:37;;;;;;;78.07;41.88;;;;;;;8.47;90.73;100361.36;1710340;83;21239;-69
2021/04/01 01:46:06;;;;;;;70.90;39.55;;;;;;;8.49;90.64;100368.75;1710094;83;21215;-69
2021/04/01 01:48:35;;;;;;;68.05;38.65;;;;;;;8.49;90.70;100363.50;1710337;81;21191;-71
2021/04/01 01:51:05;;;;;;;65.52;38.65;;;;;;;8.49;90.61;100360.88;1710732;83;22308;-70
2021/04/01 01:53:32;;;;;;;62.15;36.10;;;;;;;8.50;90.74;100363.89;1721313;79;21262;-74
2021/04/01 01:56:00;;;;;;;67.90;37.63;;;;;;;8.51;90.69;100363.02;1723288;82;21181;-76
2021/04/01 01:58:30;;;;;;;69.80;37.83;;;;;;;8.50;90.61;100356.02;1744004;81;21658;-76
2021/04/01 02:01:00;;;;;;;66.25;37.90;;;;;;;8.50;90.72;100357.79;1753387;81;21182;-75
2021/04/01 02:03:28;;;;;;;66.30;38.05;;;;;;;8.50;90.66;100352.55;1753255;81;21294;-75
2021/04/01 02:05:57;;;;;;;76.62;43.68;;;;;;;8.49;90.57;100351.69;1753266;81;21240;-75
2021/04/01 02:08:25;;;;;;;76.42;40.70;;;;;;;8.49;90.67;100346.44;1756350;78;21213;-70
2021/04/01 02:10:54;;;;;;;69.37;37.75;;;;;;;8.47;90.64;100348.23;1762710;81;21174;-69
2021/04/01 02:13:23;;;;;;;65.25;37.50;;;;;;;8.47;90.40;100353.48;1743408;81;21212;-68
2021/04/01 02:15:55;;;;;;;69.80;39.75;;;;;;;8.44;90.39;100348.29;1732168;82;21815;-68
2021/04/01 02:18:27;;;;;;;63.65;36.13;;;;;;;8.44;90.50;100345.66;1732214;82;21159;-69
2021/04/01 02:20:59;;;;;;;59.00;35.95;;;;;;;8.46;90.61;100353.51;1752508;81;21151;-69
2021/04/01 02:23:30;;;;;;;62.48;38.17;;;;;;;8.48;90.65;100351.25;1749677;78;21214;-74
2021/04/01 02:25:59;;;;;;;55.43;34.25;;;;;;;8.47;90.64;100348.23;1731642;81;21215;-74
2021/04/01 02:28:29;;;;;;;70.67;38.73;;;;;;;8.49;90.64;100349.06;1726878;83;21202;-74
2021/04/01 02:30:59;;;;;;;62.17;36.40;;;;;;;8.50;90.85;100342.89;1726589;83;21226;-76
2021/04/01 02:33:29;;;;;;;57.67;34.27;;;;;;;8.52;90.79;100341.55;1727032;83;21170;-77
2021/04/01 02:35:58;;;;;;;67.03;40.67;;;;;;;8.55;90.74;100340.16;1726938;82;21239;-75
2021/04/01 02:38:26;;;;;;;71.50;40.52;;;;;;;8.57;90.64;100337.90;1728747;78;21269;-68
2021/04/01 02:40:56;;;;;;;73.65;38.65;;;;;;;8.59;90.50;100330.85;1720547;83;21269;-69
2021/04/01 02:43:34;;;;;;;79.40;45.15;;;;;;;8.63;90.35;100330.34;1689858;84;21638;-69
2021/04/01 02:46:04;;;;;;;80.05;42.95;;;;;;;8.65;90.08;100337.73;1689546;84;21233;-67
2021/04/01 02:48:33;;;;;;;80.32;45.55;;;;;;;8.66;89.91;100334.19;1688731;83;21200;-70
2021/04/01 02:51:03;;;;;;;75.45;44.33;;;;;;;8.68;89.76;100334.16;1689671;84;21200;-70
2021/04/01 02:53:31;;;;;;;75.30;43.85;;;;;;;8.69;89.58;100326.67;1718467;82;22318;-69
2021/04/01 02:55:59;;;;;;;70.40;42.55;;;;;;;8.72;89.50;100329.20;1689456;84;21232;-71
2021/04/01 02:58:28;;;;;;;64.45;40.80;;;;;;;8.73;89.35;100328.33;1718415;83;21181;-69
2021/04/01 03:00:57;;;;;;;75.42;42.90;;;;;;;8.77;89.48;100328.20;1689535;84;21160;-68
2021/04/01 03:03:30;;;;;;;71.17;43.08;;;;;;;8.80;89.16;100327.26;1718184;82;21204;-68
2021/04/01 03:05:56;;;;;;;71.72;42.65;;;;;;;8.81;89.13;100325.91;1708495;83;21277;-68
2021/04/01 03:08:35;;;;;;;81.60;45.20;;;;;;;8.82;89.04;100320.20;1710479;82;21189;-67
2021/04/01 03:11:05;;;;;;;96.22;49.05;;;;;;;8.82;88.86;100322.37;1733287;81;21607;-72
2021/04/01 03:13:34;;;;;;;102.60;55.70;;;;;;;8.82;88.61;100318.43;1725521;83;21147;-78
2021/04/01 03:16:03;;;;;;;85.05;46.63;;;;;;;8.82;88.41;100315.80;1737948;81;21234;-74
2021/04/01 03:18:33;;;;;;;88.55;43.83;;;;;;;8.83;88.38;100319.28;1755950;81;21307;-76
2021/04/01 03:21:01;;;;;;;76.92;42.83;;;;;;;8.80;88.18;100316.75;1755835;81;21206;-75
2021/04/01 03:23:37;;;;;;;86.90;47.90;;;;;;;8.80;88.20;100312.81;1755822;81;21159;-73
2021/04/01 03:26:05;;;;;;;82.27;45.78;;;;;;;8.64;88.18;100290.50;1739499;82;21178;-68
2021/04/01 03:28:33;;;;;;;86.57;43.50;;;;;;;8.74;88.25;100314.28;1739590;82;21210;-69
2021/04/01 03:31:02;;;;;;;75.90;41.37;;;;;;;8.70;88.34;100313.98;1740374;82;21383;-69
2021/04/01 03:33:31;;;;;;;68.05;39.13;;;;;;;8.67;88.48;100310.09;1759194;81;21644;-68
2021/04/01 03:36:00;;;;;;;63.00;35.75;;;;;;;8.67;88.48;100315.34;1770196;81;21201;-66
2021/04/01 03:38:43;;;;;;;71.25;37.73;;;;;;;8.65;88.68;100313.21;1770159;81;21271;-69
2021/04/01 03:41:11;;;;;;;70.85;41.35;;;;;;;8.64;88.53;100315.44;1759151;80;21127;-77
2021/04/01 03:43:39;;;;;;;86.90;46.05;;;;;;;8.59;88.62;100307.22;1699981;84;22356;-78
2021/04/01 03:46:08;;;;;;;91.85;46.48;;;;;;;8.57;88.61;100312.96;1666143;85;21591;-74
2021/04/01 03:48:37;;;;;;;80.15;44.25;;;;;;;8.56;88.70;100307.77;1709265;83;21157;-81
2021/04/01 03:51:05;;;;;;;74.03;43.58;;;;;;;8.55;88.78;100302.95;1741475;80;21222;-81
2021/04/01 03:53:44;;;;;;;79.95;43.20;;;;;;;8.56;88.80;100308.63;1736656;81;21185;-81
2021/04/01 03:56:12;;;;;;;77.82;43.70;;;;;;;8.56;88.81;100307.31;1753164;80;21393;-69
2021/04/01 04:14:09;;;;;;;76.33;43.25;;;;;;;8.55;88.74;100293.77;1736715;81;21200;-77
2021/04/01 04:16:35;;;;;;;75.83;44.20;;;;;;;8.54;88.66;100289.42;1733041;82;21686;-77
2021/04/01 04:19:04;;;;;;;81.12;46.25;;;;;;;8.55;88.59;100286.34;1736916;82;21438;-77
2021/04/01 04:21:32;;;;;;;88.80;46.83;;;;;;;8.52;88.55;100278.10;1736886;82;21387;-81
2021/04/01 04:24:03;;;;;;;85.77;48.17;;;;;;;8.52;88.57;100282.50;1736417;80;21129;-70
2021/04/01 04:26:33;;;;;;;87.40;46.40;;;;;;;8.53;88.49;100281.58;1709546;83;21187;-68
2021/04/01 04:29:03;;;;;;;81.08;42.83;;;;;;;8.52;88.52;100283.35;1714500;83;21166;-67
2021/04/01 04:31:31;;;;;;;85.17;43.90;;;;;;;8.50;88.55;100285.16;1686042;85;21195;-69
2021/04/01 04:33:59;;;;;;;74.70;44.25;;;;;;;8.51;88.65;100273.77;1681173;84;21367;-70
2021/04/01 04:36:28;;;;;;;79.70;44.55;;;;;;;8.56;88.54;100273.19;1685969;85;21238;-68
2021/04/01 04:38:57;;;;;;;76.45;41.08;;;;;;;8.58;88.31;100267.45;1683376;78;21191;-76
2021/04/01 04:41:25;;;;;;;82.12;44.83;;;;;;;8.61;88.01;100269.98;1736500;81;21230;-78
2021/04/01 04:43:54;;;;;;;73.22;43.05;;;;;;;8.74;87.74;100269.64;1725935;83;21155;-78
2021/04/01 04:46:22;;;;;;;84.90;46.63;;;;;;;8.97;87.12;100271.63;1703018;84;21492;-80
2021/04/01 04:48:50;;;;;;;84.87;47.60;;;;;;;9.22;85.63;100267.42;1761789;80;21175;-78
2021/04/01 04:51:18;;;;;;;88.33;48.10;;;;;;;9.45;84.67;100261.91;1766291;80;21147;-78
2021/04/01 04:53:47;;;;;;;79.62;46.30;;;;;;;9.71;83.61;100258.50;1757752;80;21622;-79
2021/04/01 04:56:27;;;;;;;82.25;46.08;;;;;;;9.99;82.38;100252.36;1770927;78;21522;-67
2021/04/01 04:59:07;;;;;;;70.67;41.88;;;;;;;10.29;81.16;100250.50;1814707;78;21209;-66
2021/04/01 05:04:39;;;;;;;67.67;40.50;;;;;;;10.90;78.05;100255.38;1758550;80;21198;-64
2021/04/01 05:07:07;;;;;;;59.70;37.13;;;;;;;11.18;76.89;100249.09;1789478;78;21143;-68
2021/04/01 05:09:37;;;;;;;70.72;40.92;;;;;;;11.41;75.40;100243.82;1808686;77;21273;-75
2021/04/01 05:12:08;;;;;;;66.40;39.13;;;;;;;11.50;75.21;100244.78;1753879;81;21665;-77
2021/04/01 05:14:36;;;;;;;71.65;41.10;;;;;;;11.65;73.68;100237.17;1737291;82;28448;-76
2021/04/01 05:17:06;;;;;;;67.78;39.40;;;;;;;11.81;72.52;100236.95;1745431;81;21202;-75
2021/04/01 05:19:39;;;;;;;63.83;39.35;;;;;;;12.04;72.25;100237.84;1783251;79;21652;31
2021/04/01 05:24:45;;;;;;;62.80;41.43;;;;;;;12.45;69.93;100235.23;1845967;76;27762;-75
2021/04/01 05:29:57;;;;;;;61.15;36.90;;;;;;;12.93;67.84;100232.66;1816946;78;21375;-75
2021/04/01 05:32:11;;;;;;;60.55;38.15;;;;;;;13.19;67.52;100231.02;1794391;78;21639;-78
2021/04/01 05:34:39;;;;;;;65.05;36.75;;;;;;;13.54;66.70;100233.82;1778761;78;21190;-76
2021/04/01 05:37:07;;;;;;;58.52;35.88;;;;;;;13.77;64.55;100228.74;1812890;78;21135;-75
2021/04/01 05:39:38;;;;;;;54.65;34.20;;;;;;;13.97;64.01;100225.12;1831407;77;20960;-76
2021/04/01 05:42:07;;;;;;;54.85;34.45;;;;;;;14.17;64.27;100229.44;1814482;78;21358;-75
2021/04/01 05:47:18;;;;;;;56.85;35.88;;;;;;;14.55;61.20;100235.91;1818509;77;21225;-76
2021/04/01 06:00:37;;;;;;;61.48;34.20;;;;;;;15.25;58.45;100207.44;1826411;77;21152;-76
2021/04/01 06:03:19;;;;;;;61.85;36.10;;;;;;;15.02;58.70;100214.45;1818530;77;21261;-77
2021/04/01 06:05:46;;;;;;;60.52;35.50;;;;;;;15.06;59.02;100213.34;1792387;78;21615;-75
2021/04/01 06:08:18;;;;;;;63.02;36.03;;;;;;;15.37;58.31;100205.90;1815940;78;21422;-75
2021/04/01 06:10:47;;;;;;;63.40;36.00;;;;;;;15.79;57.05;100205.77;1799627;77;22143;-77
2021/04/01 06:13:17;;;;;;;61.00;34.85;;;;;;;16.14;55.92;100204.18;1808522;78;21186;-77
2021/04/01 06:15:48;;;;;;;58.45;34.05;;;;;;;16.29;55.34;100198.45;1822144;77;21190;-75
2021/04/01 06:18:19;;;;;;;62.50;37.53;;;;;;;16.57;54.55;100195.83;1811418;77;21506;-75
2021/04/01 06:20:49;;;;;;;58.40;33.30;;;;;;;16.80;53.70;100198.91;1737298;77;22989;-76
2021/04/01 06:23:30;;;;;;;53.35;31.07;;;;;;;16.94;53.59;100188.27;1724439;81;21553;-76
2021/04/01 06:26:00;;;;;;;53.05;32.15;;;;;;;17.02;53.04;100185.59;1686080;84;21199;-76
2021/04/01 06:28:33;;;;;;;59.00;33.73;;;;;;;17.07;52.83;100190.14;1683217;84;21255;-76
2021/04/01 06:31:02;;;;;;;56.70;32.23;;;;;;;16.88;53.42;100188.64;1667934;84;21456;-77
2021/04/01 06:33:30;;;;;;;54.42;29.70;;;;;;;16.77;53.16;100193.73;1683889;84;22052;-76
2021/04/01 06:36:02;;;;;;;52.85;30.30;;;;;;;16.61;53.60;100194.30;1717720;83;21176;-76
2021/04/01 06:38:36;;;;;;;51.20;30.60;;;;;;;16.53;54.05;100186.80;1665251;84;21237;-76
2021/04/01 06:41:11;;;;;;;53.58;29.35;;;;;;;16.65;53.91;100187.37;1701033;83;21218;-75
2021/04/01 06:43:53;;;;;;;55.78;30.08;;;;;;;16.73;53.44;100180.27;1665560;84;21267;-76
2021/04/01 06:46:23;;;;;;;46.90;29.05;;;;;;;17.07;52.78;100182.16;1675903;84;21245;-76
2021/04/01 06:51:36;;;;;;;44.67;27.25;;;;;;;17.86;50.53;100166.02;1670318;84;21177;-77
2021/04/01 06:54:15;;;;;;;42.98;28.23;;;;;;;18.19;50.20;100170.38;1660329;84;21648;-76
2021/04/01 06:56:50;;;;;;;49.53;26.70;;;;;;;18.61;49.52;100167.06;1667439;84;21198;-76
2021/04/01 07:02:10;;;;;;;44.98;25.50;;;;;;;19.18;47.45;100158.19;1648532;86;21209;-77
2021/04/01 07:04:36;;;;;;;47.30;26.23;;;;;;;19.56;46.38;100157.21;1648218;86;21458;-77
2021/04/01 07:12:29;;;;;;;41.68;23.22;;;;;;;18.95;47.00;100147.34;1862674;75;21177;-76
2021/04/01 07:18:10;;;;;;;43.92;22.80;;;;;;;19.17;46.53;100135.98;1876207;74;22763;-77
2021/04/01 07:23:29;;;;;;;34.00;21.12;;;;;;;19.00;46.97;100145.22;1777710;80;21955;-76
2021/04/01 07:50:44;;;;;;;31.60;20.00;;;;;;;19.48;45.75;100113.20;1847878;77;23111;-78
2021/04/01 07:53:13;;;;;;;39.70;20.08;;;;;;;19.18;46.23;100112.80;1747637;80;21198;-76
2021/04/01 07:58:53;;;;;;;38.92;21.50;;;;;;;18.86;47.27;100119.98;1778903;80;21186;-75
2021/04/01 08:06:27;;;;;;;34.83;21.42;;;;;;;19.32;46.60;100098.44;1749657;81;21174;-70
2021/04/01 08:11:44;;;;;;;30.45;18.98;;;;;;;19.49;46.50;100090.88;1846412;76;22680;-71
2021/04/01 08:17:06;;;;;;;35.33;20.48;;;;;;;20.07;44.58;100092.80;1756822;79;22811;-75
2021/04/01 08:19:37;;;;;;;44.27;21.87;;;;;;;20.08;44.21;100088.68;1718678;82;21222;-77
2021/04/01 08:22:15;;;;;;;33.23;19.87;;;;;;;20.03;44.40;100086.83;1683131;85;21234;-76
2021/04/01 08:24:51;;;;;;;30.60;20.15;;;;;;;20.12;44.38;100080.77;1681946;85;21234;-78
2021/04/01 08:33:06;;;;;;;29.50;19.67;;;;;;;21.06;43.61;100070.67;1714441;81;21171;-70
2021/04/01 08:35:32;;;;;;;32.95;19.55;;;;;;;21.65;41.33;100056.47;1767213;81;21202;-71
2021/04/01 08:38:13;;;;;;;34.38;21.40;;;;;;;22.17;39.94;100052.02;1742904;81;21234;-71
2021/04/01 08:40:44;;;;;;;46.63;21.73;;;;;;;22.32;39.69;100046.69;1737579;82;21609;-70
2021/04/01 08:43:45;;;;;;;43.25;21.73;;;;;;;21.95;39.75;100046.33;1736803;82;21203;-71
2021/04/01 08:46:40;;;;;;;30.97;19.67;;;;;;;21.57;40.81;100047.75;1686795;81;21285;-77
2021/04/01 08:49:37;;;;;;;28.07;19.73;;;;;;;21.32;41.42;100041.73;1658072;85;22354;-77
2021/04/01 08:53:01;;;;;;;34.30;20.60;;;;;;;21.27;41.11;100034.57;1679520;84;21219;-78
2021/04/01 08:55:42;;;;;;;29.15;19.00;;;;;;;21.68;40.94;100030.77;1689211;84;21104;-79
2021/04/01 08:58:24;;;;;;;29.32;16.73;;;;;;;22.27;39.07;100035.52;1662967;85;21163;-76
2021/04/01 09:01:10;;;;;;;31.02;19.23;;;;;;;22.19;39.51;100019.20;1714702;81;21166;-71
2021/04/01 09:03:31;;;;;;;41.90;22.10;;;;;;;22.34;39.46;100021.08;1686601;83;21280;-70
2021/04/01 09:06:02;;;;;;;34.45;19.17;;;;;;;22.36;38.98;100013.72;1654467;86;21190;-70
2021/04/01 09:08:32;;;;;;;41.25;19.82;;;;;;;22.07;39.19;100010.89;1661082;84;21217;-70
2021/04/01 09:11:02;;;;;;;29.95;20.48;;;;;;;21.64;40.41;100014.59;1683658;85;21267;-70
2021/04/01 09:13:34;;;;;;;28.98;18.40;;;;;;;21.51;40.50;100007.59;1685109;83;22177;-70
2021/04/01 09:16:10;;;;;;;;;;;;;;;21.70;40.28;100004.20;1695868;81;21406;-75
2021/04/01 09:18:36;;;;;;;28.07;18.62;;;;;;;21.90;39.51;100002.95;1737733;81;20655;-77
2021/04/01 09:21:05;;;;;;;34.75;17.87;;;;;;;21.76;40.06;99996.11;1758390;81;21660;-76
2021/04/01 09:23:38;;;;;;;29.40;19.87;;;;;;;21.63;39.64;99996.33;1756643;81;21731;-76
2021/04/01 09:26:08;;;;;;;36.25;19.07;;;;;;;20.89;41.19;99996.23;1731544;82;21608;-78
2021/04/01 09:28:39;;;;;;;34.43;19.13;;;;;;;20.50;42.12;99996.67;1724674;83;21669;-76
2021/04/01 09:31:08;;;;;;;;;;;;;;;20.34;42.68;99993.53;1714468;80;21417;-70
2021/04/01 09:33:37;;;;;;;31.48;18.73;;;;;;;20.74;42.19;99983.14;1735648;82;20302;-67
2021/04/01 09:36:14;;;;;;;31.60;17.27;;;;;;;21.24;40.32;99977.26;1748325;82;22070;-68
2021/04/01 09:38:51;;;;;;;31.07;19.42;;;;;;;21.09;40.32;99978.03;1737189;82;21218;-68
2021/04/01 09:41:30;;;;;;;31.57;18.67;;;;;;;21.04;40.20;99974.90;1704128;82;22168;-68
2021/04/01 09:44:08;;;;;;;33.95;18.60;;;;;;;21.09;40.99;99976.70;1786086;80;21813;-68
2021/04/01 09:46:37;;;;;;;33.25;18.65;;;;;;;21.49;40.42;99972.05;1753472;79;21250;-78
2021/04/01 09:49:06;;;;;;;34.75;17.70;;;;;;;21.79;39.63;99966.38;1681292;84;21200;-77
2021/04/01 09:51:34;;;;;;;35.10;18.82;;;;;;;21.91;38.47;99957.26;1628836;86;21222;-77
2021/04/01 09:54:03;;;;;;;23.52;14.75;;;;;;;21.73;39.54;99962.87;1682480;83;22587;-77
2021/04/01 09:56:32;;;;;;;19.00;11.93;;;;;;;21.49;37.50;99965.34;1671993;84;21671;-77
2021/04/01 09:59:00;;;;;;;16.48;11.55;;;;;;;21.47;36.17;99961.11;1653285;84;21214;-76
2021/04/01 10:01:43;;;;;;;21.60;11.43;;;;;;;21.64;35.45;99965.01;1652947;79;21260;-67
2021/04/01 10:04:12;;;;;;;26.68;13.68;;;;;;;21.84;34.50;99961.95;1665040;84;21165;-68
2021/04/01 10:06:45;;;;;;;18.27;11.95;;;;;;;22.04;34.69;99944.98;1699527;83;21868;-68
2021/04/01 10:09:19;;;;;;;27.93;11.03;;;;;;;22.65;33.95;99942.70;1714668;83;21211;-70
2021/04/01 10:12:07;;;;;;;19.55;11.38;;;;;;;23.01;31.82;99944.39;1720522;82;21194;-68
2021/04/01 10:14:37;;;;;;;17.62;11.75;;;;;;;22.97;32.07;99938.91;1717299;83;21195;-66
2021/04/01 10:17:10;;;;;;;15.93;9.10;;;;;;;23.03;32.97;99939.73;1727772;82;21158;-65
2021/04/01 10:19:43;;;;;;;25.92;11.80;;;;;;;23.46;31.87;99939.73;1747880;80;21175;-65
2021/04/01 10:22:25;;;;;;;21.75;12.20;;;;;;;23.93;32.52;99929.04;1762884;80;21147;-66
2021/04/01 10:25:21;;;;;;;21.52;11.53;;;;;;;24.41;31.45;99923.91;1761997;81;21198;-65
2021/04/01 10:28:11;;;;;;;19.42;12.33;;;;;;;24.80;29.12;99920.98;1740183;81;21198;-62
2021/04/01 10:30:36;;;;;;;26.15;11.20;;;;;;;24.49;29.39;99917.29;1710090;79;21162;-70
2021/04/01 10:33:32;;;;;;;15.70;9.23;;;;;;;23.56;30.73;99919.08;1704366;82;21352;-70
2021/04/01 10:36:04;;;;;;;21.82;9.35;;;;;;;23.20;30.55;99920.20;1735615;81;21659;-70
2021/04/01 10:38:32;;;;;;;13.90;9.85;;;;;;;23.48;31.50;99907.36;1732371;82;21651;-69
2021/04/01 10:41:06;;;;;;;20.75;10.55;;;;;;;23.82;29.54;99899.14;1732647;82;21176;-69
2021/04/01 10:43:33;;;;;;;18.32;11.25;;;;;;;24.12;30.36;99897.67;1734535;81;21213;-70
2021/04/01 10:46:01;;;;;;;21.60;11.90;;;;;;;24.46;30.21;99898.73;1732545;78;21613;-63
2021/04/01 10:48:36;;;;;;;20.08;11.25;;;;;;;24.72;29.00;99885.89;1743952;80;21661;-63
2021/04/01 10:51:08;;;;;;;13.62;9.25;;;;;;;24.48;27.99;99877.92;1727281;82;21648;-63
2021/04/01 10:53:44;;;;;;;26.00;11.57;;;;;;;24.39;28.21;99871.23;1727698;81;21685;-62
2021/04/01 10:56:13;;;;;;;21.62;12.10;;;;;;;24.36;29.08;99871.02;1745430;80;21538;-62
2021/04/01 10:58:55;;;;;;;20.80;11.40;;;;;;;24.28;29.94;99866.91;1758024;81;21376;-62
2021/04/01 11:01:37;;;;;;;21.17;10.50;;;;;;;24.10;30.18;99860.65;1697963;80;21261;-70
2021/04/01 11:04:13;;;;;;;13.18;9.43;;;;;;;24.04;28.98;99858.92;1887620;75;22724;-69
2021/04/01 11:06:44;;;;;;;20.48;11.97;;;;;;;23.87;29.78;99858.36;1757408;80;21083;-70
2021/04/01 11:09:11;;;;;;;23.83;11.68;;;;;;;23.88;29.74;99850.66;1816937;77;21213;-70
2021/04/01 11:12:11;;;;;;;23.10;11.38;;;;;;;24.04;29.32;99843.25;1843164;77;22225;-71
2021/04/01 11:14:25;;;;;;;20.27;12.88;;;;;;;24.06;29.80;99835.41;1832131;77;21219;-71
2021/04/01 11:16:55;;;;;;;17.90;10.28;;;;;;;24.24;29.49;99831.88;1764301;75;21248;-63
2021/04/01 11:19:23;;;;;;;15.40;9.53;;;;;;;24.34;29.54;99837.19;1702457;82;21170;-62
2021/04/01 11:21:53;;;;;;;18.82;11.22;;;;;;;24.46;28.95;99829.25;1722039;83;22787;-62
2021/04/01 11:24:30;;;;;;;19.55;10.40;;;;;;;24.54;29.05;99824.47;1721994;83;21244;-62
2021/04/01 11:27:17;;;;;;;19.52;10.32;;;;;;;24.24;29.24;99825.99;1722057;82;21224;-63
2021/04/01 11:30:52;;;;;;;22.67;10.90;;;;;;;23.22;29.77;99817.48;1803971;77;22818;-71
2021/04/01 11:33:25;;;;;;;23.77;13.70;;;;;;;22.61;30.59;99815.13;1688287;84;21733;-70
2021/04/01 11:38:54;;;;;;;22.50;11.90;;;;;;;21.61;34.39;99809.87;1831032;77;22757;-69
2021/04/01 11:41:19;;;;;;;20.43;11.03;;;;;;;21.40;34.44;99814.78;1786172;80;21242;-69
2021/04/01 11:43:52;;;;;;;17.02;9.55;;;;;;;21.40;35.10;99809.43;1806810;78;21442;-69
2021/04/01 11:46:27;;;;;;;20.15;10.50;;;;;;;21.72;33.46;99800.39;1803409;75;21192;-63
2021/04/01 11:48:57;;;;;;;19.45;10.28;;;;;;;22.23;32.04;99795.37;1776129;78;21579;-62
2021/04/01 11:51:33;;;;;;;24.40;9.93;;;;;;;22.74;31.90;99787.52;1784536;78;21212;-63
2021/04/01 11:54:05;;;;;;;16.93;9.25;;;;;;;23.21;29.75;99784.03;1791088;78;21124;-63
2021/04/01 11:56:41;;;;;;;18.95;9.28;;;;;;;23.38;29.02;99781.09;1759420;80;21384;-62
2021/04/01 11:59:15;;;;;;;15.63;8.18;;;;;;;23.57;27.97;99776.97;1751214;81;21190;-62
2021/04/01 12:01:59;;;;;;;13.35;8.08;;;;;;;23.76;28.16;99768.48;1759865;79;21221;-70
2021/04/01 12:04:29;;;;;;;17.10;9.10;;;;;;;23.94;27.93;99762.63;1759428;79;21696;-70
2021/04/01 12:06:56;;;;;;;20.27;8.00;;;;;;;23.94;27.79;99766.67;1755547;79;21707;-69
2021/04/01 12:09:25;;;;;;;16.30;7.55;;;;;;;23.50;27.58;99754.38;1742508;80;21374;-69
2021/04/01 12:11:55;;;;;;;22.25;9.10;;;;;;;22.89;27.91;99770.95;1764714;80;21135;-70
2021/04/01 12:14:38;;;;;;;15.32;8.25;;;;;;;22.63;27.45;99759.48;1771659;80;21218;-69
2021/04/01 12:17:07;;;;;;;26.15;9.50;;;;;;;22.50;27.91;99745.51;1692628;79;21254;-62
2021/04/01 12:19:36;;;;;;;20.48;9.18;;;;;;;22.40;29.57;99741.00;1714181;82;21213;-62
2021/04/01 12:22:08;;;;;;;23.25;9.48;;;;;;;22.34;30.18;99746.95;1718209;82;21639;-63
2021/04/01 12:24:37;;;;;;;15.03;7.95;;;;;;;22.32;29.15;99748.92;1717103;82;21137;-63
2021/04/01 12:27:06;;;;;;;17.25;7.87;;;;;;;21.95;28.11;99738.86;1716626;82;21178;-62
2021/04/01 12:29:48;;;;;;;16.73;8.28;;;;;;;21.84;29.06;99731.44;1716111;81;21176;-63
2021/04/01 12:32:27;;;;;;;23.90;9.10;;;;;;;21.99;29.63;99730.89;1728040;77;21234;-69
2021/04/01 12:35:31;;;;;;;13.13;7.65;;;;;;;21.89;30.93;99736.72;1688595;83;21381;-71
2021/04/01 12:38:03;;;;;;;23.95;8.10;;;;;;;21.82;30.41;99723.52;1813589;77;21607;-70
2021/04/01 12:40:38;;;;;;;14.53;7.97;;;;;;;21.78;29.77;99716.73;1789167;80;21213;-70
2021/04/01 12:43:09;;;;;;;12.78;7.85;;;;;;;21.50;29.95;99715.20;1788156;79;21173;-71
2021/04/01 12:45:54;;;;;;;15.48;7.33;;;;;;;21.35;30.51;99705.84;1784964;78;21282;-69
2021/04/01 12:48:22;;;;;;;19.17;9.28;;;;;;;21.41;30.87;99705.30;1701974;82;21225;-63
2021/04/01 12:50:54;;;;;;;18.75;7.75;;;;;;;21.46;30.26;99696.36;1727509;81;21216;-63
2021/04/01 12:53:24;;;;;;;19.42;9.25;;;;;;;21.30;30.94;99704.91;1731791;81;21208;-63
2021/04/01 12:56:07;;;;;;;20.23;8.83;;;;;;;21.01;31.47;99698.09;1737189;82;21544;-63
2021/04/01 12:59:15;;;;;;;18.12;9.70;;;;;;;21.08;33.06;99695.73;1734206;81;21644;-64
2021/04/01 13:01:31;;;;;;;15.80;7.87;;;;;;;21.31;31.87;99689.69;1716649;78;21086;-69
2021/04/01 13:04:01;;;;;;;22.25;8.35;;;;;;;21.41;30.41;99683.88;1717698;82;21492;-69
2021/04/01 13:11:46;;;;;;;20.12;7.75;;;;;;;21.93;29.93;99671.63;1752583;80;21430;-70
2021/04/01 13:14:14;;;;;;;58.55;13.28;;;;;;;22.09;30.50;99664.36;1755297;79;22439;-70
2021/04/01 13:16:44;;;;;;;16.90;8.65;;;;;;;21.85;30.24;99658.06;1748143;76;21676;-63
2021/04/01 13:19:12;;;;;;;13.78;8.03;;;;;;;21.60;30.33;99671.51;1723363;82;21171;-65
2021/04/01 13:27:11;;;;;;;19.60;7.37;;;;;;;21.24;30.39;99647.87;1808734;78;22714;-63
2021/04/01 13:29:41;;;;;;;15.50;7.80;;;;;;;21.00;30.86;99637.48;1707635;82;21574;-63
2021/04/01 13:32:14;;;;;;;22.45;8.60;;;;;;;20.95;31.28;99639.73;1727754;78;21358;-72